sensor_id;sensor_type;location;lat;lon;timestamp;P1;durP1;ratioP1;P2;durP2;ratioP2
76121;SDS011;70471;53.200;6.080;2023-07-20T00:04:25;0.28;;;0.20;;
76121;SDS011;70471;53.200;6.080;2023-07-20T00:09:18;1.05;;;0.30;;
76121;SDS011;70471;53.200;6.080;2023-07-20T00:14:11;1.10;;;0.20;;
76121;SDS011;70471;53.200;6.080;2023-07-20T00:19:03;0.45;;;0.20;;
76121;SDS011;70471;53.200;6.080;2023-07-20T00:23:55;0.45;;;0.30;;
76121;SDS011;70471;53.200;6.080;2023-07-20T00:28:48;1.10;;;0.20;;
76121;SDS011;70471;53.200;6.080;2023-07-20T00:33:41;0.47;;;0.20;;
76121;SDS011;70471;53.200;6.080;2023-07-20T00:38:32;0.32;;;0.20;;
76121;SDS011;70471;53.200;6.080;2023-07-20T00:43:24;0.40;;;0.30;;
76121;SDS011;70471;53.200;6.080;2023-07-20T00:48:17;0.30;;;0.15;;
76121;SDS011;70471;53.200;6.080;2023-07-20T00:53:08;0.30;;;0.25;;
76121;SDS011;70471;53.200;6.080;2023-07-20T00:58:00;0.75;;;0.38;;
76121;SDS011;70471;53.200;6.080;2023-07-20T01:02:52;0.85;;;0.20;;
76121;SDS011;70471;53.200;6.080;2023-07-20T01:07:49;0.30;;;0.28;;
76121;SDS011;70471;53.200;6.080;2023-07-20T01:12:47;0.20;;;0.20;;
76121;SDS011;70471;53.200;6.080;2023-07-20T01:17:42;0.22;;;0.20;;
76121;SDS011;70471;53.200;6.080;2023-07-20T01:22:40;0.30;;;0.20;;
76121;SDS011;70471;53.200;6.080;2023-07-20T01:27:59;0.20;;;0.20;;
76121;SDS011;70471;53.200;6.080;2023-07-20T01:33:21;0.52;;;0.35;;
76121;SDS011;70471;53.200;6.080;2023-07-20T01:38:15;0.57;;;0.40;;
76121;SDS011;70471;53.200;6.080;2023-07-20T01:43:08;0.63;;;0.20;;
76121;SDS011;70471;53.200;6.080;2023-07-20T01:48:00;0.65;;;0.30;;
76121;SDS011;70471;53.200;6.080;2023-07-20T01:52:52;0.20;;;0.20;;
76121;SDS011;70471;53.200;6.080;2023-07-20T01:57:44;0.35;;;0.20;;
76121;SDS011;70471;53.200;6.080;2023-07-20T02:02:35;0.20;;;0.20;;
76121;SDS011;70471;53.200;6.080;2023-07-20T02:07:27;0.88;;;0.28;;
76121;SDS011;70471;53.200;6.080;2023-07-20T02:12:19;0.40;;;0.20;;
76121;SDS011;70471;53.200;6.080;2023-07-20T02:17:11;0.30;;;0.22;;
76121;SDS011;70471;53.200;6.080;2023-07-20T02:22:03;0.20;;;0.20;;
76121;SDS011;70471;53.200;6.080;2023-07-20T02:26:54;0.10;;;0.10;;
76121;SDS011;70471;53.200;6.080;2023-07-20T02:31:47;0.57;;;0.38;;
76121;SDS011;70471;53.200;6.080;2023-07-20T02:36:39;0.38;;;0.20;;
76121;SDS011;70471;53.200;6.080;2023-07-20T02:41:32;1.10;;;0.35;;
76121;SDS011;70471;53.200;6.080;2023-07-20T02:46:24;0.45;;;0.20;;
76121;SDS011;70471;53.200;6.080;2023-07-20T02:51:17;0.38;;;0.20;;
76121;SDS011;70471;53.200;6.080;2023-07-20T02:56:09;0.40;;;0.30;;
76121;SDS011;70471;53.200;6.080;2023-07-20T03:01:00;0.35;;;0.20;;
76121;SDS011;70471;53.200;6.080;2023-07-20T03:05:51;0.60;;;0.30;;
76121;SDS011;70471;53.200;6.080;2023-07-20T03:10:45;0.57;;;0.10;;
76121;SDS011;70471;53.200;6.080;2023-07-20T03:15:37;0.55;;;0.20;;
76121;SDS011;70471;53.200;6.080;2023-07-20T03:25:20;0.57;;;0.20;;
76121;SDS011;70471;53.200;6.080;2023-07-20T03:30:13;0.30;;;0.20;;
76121;SDS011;70471;53.200;6.080;2023-07-20T03:35:06;0.20;;;0.17;;
76121;SDS011;70471;53.200;6.080;2023-07-20T03:39:58;1.10;;;0.20;;
76121;SDS011;70471;53.200;6.080;2023-07-20T03:44:49;0.70;;;0.13;;
76121;SDS011;70471;53.200;6.080;2023-07-20T03:49:42;0.28;;;0.20;;
76121;SDS011;70471;53.200;6.080;2023-07-20T03:54:34;0.10;;;0.10;;
76121;SDS011;70471;53.200;6.080;2023-07-20T04:04:16;0.20;;;0.20;;
76121;SDS011;70471;53.200;6.080;2023-07-20T04:09:11;0.10;;;0.10;;
76121;SDS011;70471;53.200;6.080;2023-07-20T04:14:03;0.30;;;0.30;;
76121;SDS011;70471;53.200;6.080;2023-07-20T04:23:46;0.20;;;0.20;;
76121;SDS011;70471;53.200;6.080;2023-07-20T04:28:39;0.17;;;0.17;;
76121;SDS011;70471;53.200;6.080;2023-07-20T04:33:32;0.57;;;0.20;;
76121;SDS011;70471;53.200;6.080;2023-07-20T04:43:15;0.20;;;0.10;;
76121;SDS011;70471;53.200;6.080;2023-07-20T04:48:10;0.43;;;0.10;;
76121;SDS011;70471;53.200;6.080;2023-07-20T04:53:03;0.32;;;0.30;;
76121;SDS011;70471;53.200;6.080;2023-07-20T04:57:55;0.20;;;0.20;;
76121;SDS011;70471;53.200;6.080;2023-07-20T05:02:46;0.20;;;0.20;;
76121;SDS011;70471;53.200;6.080;2023-07-20T05:07:40;0.40;;;0.30;;
76121;SDS011;70471;53.200;6.080;2023-07-20T05:12:31;0.30;;;0.20;;
76121;SDS011;70471;53.200;6.080;2023-07-20T05:22:14;0.10;;;0.10;;
76121;SDS011;70471;53.200;6.080;2023-07-20T05:27:07;0.17;;;0.10;;
76121;SDS011;70471;53.200;6.080;2023-07-20T05:31:58;0.10;;;0.10;;
76121;SDS011;70471;53.200;6.080;2023-07-20T05:41:41;0.20;;;0.20;;
76121;SDS011;70471;53.200;6.080;2023-07-20T05:46:34;0.20;;;0.20;;
76121;SDS011;70471;53.200;6.080;2023-07-20T05:51:25;0.65;;;0.28;;
76121;SDS011;70471;53.200;6.080;2023-07-20T06:01:08;0.68;;;0.20;;
76121;SDS011;70471;53.200;6.080;2023-07-20T06:10:54;0.35;;;0.20;;
76121;SDS011;70471;53.200;6.080;2023-07-20T06:20:37;0.70;;;0.17;;
76121;SDS011;70471;53.200;6.080;2023-07-20T06:30:21;7.03;;;0.40;;
76121;SDS011;70471;53.200;6.080;2023-07-20T06:35:13;0.20;;;0.20;;
76121;SDS011;70471;53.200;6.080;2023-07-20T06:40:05;0.57;;;0.10;;
76121;SDS011;70471;53.200;6.080;2023-07-20T06:45:00;1.75;;;0.30;;
76121;SDS011;70471;53.200;6.080;2023-07-20T06:49:52;0.32;;;0.22;;
76121;SDS011;70471;53.200;6.080;2023-07-20T06:54:43;0.63;;;0.30;;
76121;SDS011;70471;53.200;6.080;2023-07-20T06:59:35;0.32;;;0.20;;
76121;SDS011;70471;53.200;6.080;2023-07-20T07:04:28;1.00;;;0.65;;
76121;SDS011;70471;53.200;6.080;2023-07-20T07:09:19;0.32;;;0.28;;
76121;SDS011;70471;53.200;6.080;2023-07-20T07:14:11;0.40;;;0.20;;
76121;SDS011;70471;53.200;6.080;2023-07-20T07:19:03;0.32;;;0.20;;
76121;SDS011;70471;53.200;6.080;2023-07-20T07:23:56;1.23;;;0.30;;
76121;SDS011;70471;53.200;6.080;2023-07-20T07:28:49;0.47;;;0.25;;
76121;SDS011;70471;53.200;6.080;2023-07-20T07:33:41;0.90;;;0.40;;
76121;SDS011;70471;53.200;6.080;2023-07-20T07:38:32;1.30;;;0.35;;
76121;SDS011;70471;53.200;6.080;2023-07-20T07:43:25;0.40;;;0.30;;
76121;SDS011;70471;53.200;6.080;2023-07-20T07:48:17;0.20;;;0.10;;
76121;SDS011;70471;53.200;6.080;2023-07-20T07:53:10;1.88;;;0.55;;
76121;SDS011;70471;53.200;6.080;2023-07-20T08:02:54;0.93;;;0.47;;
76121;SDS011;70471;53.200;6.080;2023-07-20T08:07:46;0.28;;;0.20;;
76121;SDS011;70471;53.200;6.080;2023-07-20T08:17:28;0.47;;;0.38;;
76121;SDS011;70471;53.200;6.080;2023-07-20T08:27:13;0.75;;;0.35;;
76121;SDS011;70471;53.200;6.080;2023-07-20T08:32:05;0.80;;;0.35;;
76121;SDS011;70471;53.200;6.080;2023-07-20T08:36:58;3.80;;;0.40;;
76121;SDS011;70471;53.200;6.080;2023-07-20T08:41:51;1.40;;;0.52;;
76121;SDS011;70471;53.200;6.080;2023-07-20T08:46:42;0.47;;;0.38;;
76121;SDS011;70471;53.200;6.080;2023-07-20T08:51:35;0.80;;;0.30;;
76121;SDS011;70471;53.200;6.080;2023-07-20T08:56:27;2.40;;;0.50;;
76121;SDS011;70471;53.200;6.080;2023-07-20T09:01:21;0.90;;;0.40;;
76121;SDS011;70471;53.200;6.080;2023-07-20T09:06:13;0.60;;;0.30;;
76121;SDS011;70471;53.200;6.080;2023-07-20T09:15:56;1.33;;;0.50;;
76121;SDS011;70471;53.200;6.080;2023-07-20T09:20:50;0.77;;;0.40;;
76121;SDS011;70471;53.200;6.080;2023-07-20T09:25:42;1.13;;;0.30;;
76121;SDS011;70471;53.200;6.080;2023-07-20T09:30:36;1.05;;;0.40;;
76121;SDS011;70471;53.200;6.080;2023-07-20T09:40:20;1.20;;;0.30;;
76121;SDS011;70471;53.200;6.080;2023-07-20T09:45:12;1.40;;;0.40;;
76121;SDS011;70471;53.200;6.080;2023-07-20T09:50:04;0.60;;;0.30;;
76121;SDS011;70471;53.200;6.080;2023-07-20T09:55:00;1.65;;;0.20;;
76121;SDS011;70471;53.200;6.080;2023-07-20T09:59:55;1.92;;;0.30;;
76121;SDS011;70471;53.200;6.080;2023-07-20T10:04:48;0.90;;;0.30;;
76121;SDS011;70471;53.200;6.080;2023-07-20T10:09:43;0.95;;;0.30;;
76121;SDS011;70471;53.200;6.080;2023-07-20T10:14:38;2.72;;;0.30;;
76121;SDS011;70471;53.200;6.080;2023-07-20T10:19:39;0.82;;;0.40;;
76121;SDS011;70471;53.200;6.080;2023-07-20T10:24:34;1.83;;;0.70;;
76121;SDS011;70471;53.200;6.080;2023-07-20T10:29:27;0.25;;;0.20;;
76121;SDS011;70471;53.200;6.080;2023-07-20T10:34:19;0.40;;;0.32;;
76121;SDS011;70471;53.200;6.080;2023-07-20T10:39:22;1.08;;;0.43;;
76121;SDS011;70471;53.200;6.080;2023-07-20T10:44:19;0.35;;;0.22;;
76121;SDS011;70471;53.200;6.080;2023-07-20T10:49:11;0.50;;;0.35;;
76121;SDS011;70471;53.200;6.080;2023-07-20T10:54:07;0.45;;;0.22;;
76121;SDS011;70471;53.200;6.080;2023-07-20T10:59:00;0.60;;;0.32;;
76121;SDS011;70471;53.200;6.080;2023-07-20T11:04:08;0.70;;;0.30;;
76121;SDS011;70471;53.200;6.080;2023-07-20T11:13:56;0.50;;;0.30;;
76121;SDS011;70471;53.200;6.080;2023-07-20T11:18:50;0.30;;;0.30;;
76121;SDS011;70471;53.200;6.080;2023-07-20T11:23:42;0.93;;;0.47;;
76121;SDS011;70471;53.200;6.080;2023-07-20T11:28:35;0.45;;;0.30;;
76121;SDS011;70471;53.200;6.080;2023-07-20T11:33:27;1.38;;;0.20;;
76121;SDS011;70471;53.200;6.080;2023-07-20T11:43:11;0.28;;;0.15;;
76121;SDS011;70471;53.200;6.080;2023-07-20T11:48:03;1.45;;;0.40;;
76121;SDS011;70471;53.200;6.080;2023-07-20T11:52:55;1.20;;;0.30;;
76121;SDS011;70471;53.200;6.080;2023-07-20T11:58:01;0.50;;;0.30;;
76121;SDS011;70471;53.200;6.080;2023-07-20T12:02:53;1.05;;;0.30;;
76121;SDS011;70471;53.200;6.080;2023-07-20T12:12:38;0.50;;;0.22;;
76121;SDS011;70471;53.200;6.080;2023-07-20T12:17:33;0.68;;;0.38;;
76121;SDS011;70471;53.200;6.080;2023-07-20T12:22:24;1.15;;;0.30;;
76121;SDS011;70471;53.200;6.080;2023-07-20T12:32:07;0.28;;;0.22;;
76121;SDS011;70471;53.200;6.080;2023-07-20T12:37:00;1.40;;;0.40;;
76121;SDS011;70471;53.200;6.080;2023-07-20T12:41:54;1.25;;;0.50;;
76121;SDS011;70471;53.200;6.080;2023-07-20T12:51:37;0.82;;;0.40;;
76121;SDS011;70471;53.200;6.080;2023-07-20T13:01:21;0.98;;;0.57;;
76121;SDS011;70471;53.200;6.080;2023-07-20T13:11:03;1.60;;;0.50;;
76121;SDS011;70471;53.200;6.080;2023-07-20T13:15:56;0.75;;;0.60;;
76121;SDS011;70471;53.200;6.080;2023-07-20T13:20:48;0.60;;;0.28;;
76121;SDS011;70471;53.200;6.080;2023-07-20T13:25:39;1.20;;;0.50;;
76121;SDS011;70471;53.200;6.080;2023-07-20T13:30:32;1.10;;;0.50;;
76121;SDS011;70471;53.200;6.080;2023-07-20T13:35:24;0.47;;;0.30;;
76121;SDS011;70471;53.200;6.080;2023-07-20T13:40:16;1.67;;;0.50;;
76121;SDS011;70471;53.200;6.080;2023-07-20T13:45:09;1.30;;;0.50;;
76121;SDS011;70471;53.200;6.080;2023-07-20T13:50:01;0.45;;;0.30;;
76121;SDS011;70471;53.200;6.080;2023-07-20T13:54:53;1.40;;;0.50;;
76121;SDS011;70471;53.200;6.080;2023-07-20T13:59:45;2.30;;;0.50;;
76121;SDS011;70471;53.200;6.080;2023-07-20T14:09:28;0.90;;;0.40;;
76121;SDS011;70471;53.200;6.080;2023-07-20T14:14:20;0.50;;;0.30;;
76121;SDS011;70471;53.200;6.080;2023-07-20T14:19:12;0.50;;;0.30;;
76121;SDS011;70471;53.200;6.080;2023-07-20T14:24:04;0.70;;;0.50;;
76121;SDS011;70471;53.200;6.080;2023-07-20T14:28:56;0.50;;;0.50;;
76121;SDS011;70471;53.200;6.080;2023-07-20T14:33:49;0.30;;;0.20;;
76121;SDS011;70471;53.200;6.080;2023-07-20T14:38:40;0.40;;;0.22;;
76121;SDS011;70471;53.200;6.080;2023-07-20T14:43:33;1.25;;;0.63;;
76121;SDS011;70471;53.200;6.080;2023-07-20T14:48:24;0.77;;;0.40;;
76121;SDS011;70471;53.200;6.080;2023-07-20T14:53:17;0.30;;;0.20;;
76121;SDS011;70471;53.200;6.080;2023-07-20T14:58:08;0.65;;;0.32;;
76121;SDS011;70471;53.200;6.080;2023-07-20T15:03:00;0.30;;;0.22;;
76121;SDS011;70471;53.200;6.080;2023-07-20T15:07:51;1.35;;;0.45;;
76121;SDS011;70471;53.200;6.080;2023-07-20T15:12:44;1.27;;;0.50;;
76121;SDS011;70471;53.200;6.080;2023-07-20T15:17:36;1.08;;;0.35;;
76121;SDS011;70471;53.200;6.080;2023-07-20T15:22:28;2.85;;;0.30;;
76121;SDS011;70471;53.200;6.080;2023-07-20T15:27:20;0.35;;;0.28;;
76121;SDS011;70471;53.200;6.080;2023-07-20T15:32:13;1.33;;;0.30;;
76121;SDS011;70471;53.200;6.080;2023-07-20T15:37:06;0.30;;;0.30;;
76121;SDS011;70471;53.200;6.080;2023-07-20T15:41:58;0.80;;;0.35;;
76121;SDS011;70471;53.200;6.080;2023-07-20T15:46:49;1.23;;;0.38;;
76121;SDS011;70471;53.200;6.080;2023-07-20T15:51:42;1.98;;;0.35;;
76121;SDS011;70471;53.200;6.080;2023-07-20T15:56:36;0.45;;;0.35;;
76121;SDS011;70471;53.200;6.080;2023-07-20T16:01:29;1.13;;;0.50;;
76121;SDS011;70471;53.200;6.080;2023-07-20T16:06:21;0.75;;;0.50;;
76121;SDS011;70471;53.200;6.080;2023-07-20T16:11:14;1.20;;;0.40;;
76121;SDS011;70471;53.200;6.080;2023-07-20T16:16:05;0.47;;;0.30;;
76121;SDS011;70471;53.200;6.080;2023-07-20T16:20:56;0.35;;;0.30;;
76121;SDS011;70471;53.200;6.080;2023-07-20T16:25:48;0.25;;;0.15;;
76121;SDS011;70471;53.200;6.080;2023-07-20T16:30:41;0.50;;;0.38;;
76121;SDS011;70471;53.200;6.080;2023-07-20T16:35:35;2.03;;;0.73;;
76121;SDS011;70471;53.200;6.080;2023-07-20T16:40:27;1.70;;;0.40;;
76121;SDS011;70471;53.200;6.080;2023-07-20T16:45:19;0.40;;;0.20;;
76121;SDS011;70471;53.200;6.080;2023-07-20T16:50:11;1.42;;;0.40;;
76121;SDS011;70471;53.200;6.080;2023-07-20T16:55:04;0.77;;;0.50;;
76121;SDS011;70471;53.200;6.080;2023-07-20T16:59:56;0.55;;;0.30;;
76121;SDS011;70471;53.200;6.080;2023-07-20T17:04:47;0.40;;;0.20;;
76121;SDS011;70471;53.200;6.080;2023-07-20T17:09:40;0.88;;;0.32;;
76121;SDS011;70471;53.200;6.080;2023-07-20T17:14:33;1.35;;;0.52;;
76121;SDS011;70471;53.200;6.080;2023-07-20T17:19:24;1.92;;;0.47;;
76121;SDS011;70471;53.200;6.080;2023-07-20T17:24:16;1.30;;;0.20;;
76121;SDS011;70471;53.200;6.080;2023-07-20T17:29:09;0.77;;;0.30;;
76121;SDS011;70471;53.200;6.080;2023-07-20T17:34:01;0.75;;;0.25;;
76121;SDS011;70471;53.200;6.080;2023-07-20T17:38:52;0.60;;;0.32;;
76121;SDS011;70471;53.200;6.080;2023-07-20T17:43:44;0.52;;;0.30;;
76121;SDS011;70471;53.200;6.080;2023-07-20T17:48:37;0.60;;;0.40;;
76121;SDS011;70471;53.200;6.080;2023-07-20T17:53:28;1.17;;;0.40;;
76121;SDS011;70471;53.200;6.080;2023-07-20T17:58:19;0.65;;;0.30;;
76121;SDS011;70471;53.200;6.080;2023-07-20T18:03:11;0.82;;;0.30;;
76121;SDS011;70471;53.200;6.080;2023-07-20T18:08:04;0.52;;;0.30;;
76121;SDS011;70471;53.200;6.080;2023-07-20T18:12:56;0.30;;;0.20;;
76121;SDS011;70471;53.200;6.080;2023-07-20T18:17:47;0.30;;;0.13;;
76121;SDS011;70471;53.200;6.080;2023-07-20T18:22:39;0.43;;;0.32;;
76121;SDS011;70471;53.200;6.080;2023-07-20T18:27:31;0.60;;;0.20;;
76121;SDS011;70471;53.200;6.080;2023-07-20T18:32:23;0.60;;;0.28;;
76121;SDS011;70471;53.200;6.080;2023-07-20T18:37:15;0.65;;;0.47;;
76121;SDS011;70471;53.200;6.080;2023-07-20T18:42:09;2.40;;;0.30;;
76121;SDS011;70471;53.200;6.080;2023-07-20T18:47:02;0.50;;;0.20;;
76121;SDS011;70471;53.200;6.080;2023-07-20T18:51:54;0.32;;;0.20;;
76121;SDS011;70471;53.200;6.080;2023-07-20T18:56:45;0.73;;;0.40;;
76121;SDS011;70471;53.200;6.080;2023-07-20T19:01:37;2.45;;;0.38;;
76121;SDS011;70471;53.200;6.080;2023-07-20T19:06:30;1.02;;;0.40;;
76121;SDS011;70471;53.200;6.080;2023-07-20T19:11:21;2.13;;;0.30;;
76121;SDS011;70471;53.200;6.080;2023-07-20T19:16:12;1.35;;;0.40;;
76121;SDS011;70471;53.200;6.080;2023-07-20T19:21:04;1.45;;;0.35;;
76121;SDS011;70471;53.200;6.080;2023-07-20T19:25:57;0.55;;;0.30;;
76121;SDS011;70471;53.200;6.080;2023-07-20T19:30:48;1.75;;;0.20;;
76121;SDS011;70471;53.200;6.080;2023-07-20T19:35:40;0.30;;;0.30;;
76121;SDS011;70471;53.200;6.080;2023-07-20T19:40:32;0.77;;;0.30;;
76121;SDS011;70471;53.200;6.080;2023-07-20T19:45:25;0.45;;;0.32;;
76121;SDS011;70471;53.200;6.080;2023-07-20T19:50:16;0.50;;;0.20;;
76121;SDS011;70471;53.200;6.080;2023-07-20T19:55:08;0.47;;;0.38;;
76121;SDS011;70471;53.200;6.080;2023-07-20T20:00:00;0.75;;;0.40;;
76121;SDS011;70471;53.200;6.080;2023-07-20T20:04:52;0.20;;;0.17;;
76121;SDS011;70471;53.200;6.080;2023-07-20T20:09:44;2.13;;;0.38;;
76121;SDS011;70471;53.200;6.080;2023-07-20T20:14:35;1.50;;;0.40;;
76121;SDS011;70471;53.200;6.080;2023-07-20T20:19:27;0.50;;;0.30;;
76121;SDS011;70471;53.200;6.080;2023-07-20T20:24:20;0.80;;;0.20;;
76121;SDS011;70471;53.200;6.080;2023-07-20T20:29:11;0.93;;;0.20;;
76121;SDS011;70471;53.200;6.080;2023-07-20T20:34:02;0.57;;;0.20;;
76121;SDS011;70471;53.200;6.080;2023-07-20T20:38:54;1.70;;;0.30;;
76121;SDS011;70471;53.200;6.080;2023-07-20T20:43:47;0.45;;;0.20;;
76121;SDS011;70471;53.200;6.080;2023-07-20T20:48:39;0.60;;;0.40;;
76121;SDS011;70471;53.200;6.080;2023-07-20T20:53:35;0.95;;;0.40;;
76121;SDS011;70471;53.200;6.080;2023-07-20T20:58:26;0.60;;;0.40;;
76121;SDS011;70471;53.200;6.080;2023-07-20T21:03:19;1.38;;;0.20;;
76121;SDS011;70471;53.200;6.080;2023-07-20T21:08:11;0.50;;;0.30;;
76121;SDS011;70471;53.200;6.080;2023-07-20T21:13:02;0.63;;;0.40;;
76121;SDS011;70471;53.200;6.080;2023-07-20T21:17:54;1.27;;;0.50;;
76121;SDS011;70471;53.200;6.080;2023-07-20T21:22:47;1.00;;;0.50;;
76121;SDS011;70471;53.200;6.080;2023-07-20T21:27:38;0.85;;;0.50;;
76121;SDS011;70471;53.200;6.080;2023-07-20T21:32:32;1.90;;;0.70;;
76121;SDS011;70471;53.200;6.080;2023-07-20T21:37:23;0.93;;;0.47;;
76121;SDS011;70471;53.200;6.080;2023-07-20T21:42:16;1.02;;;0.73;;
76121;SDS011;70471;53.200;6.080;2023-07-20T21:47:08;1.73;;;0.77;;
76121;SDS011;70471;53.200;6.080;2023-07-20T21:51:59;1.55;;;0.70;;
76121;SDS011;70471;53.200;6.080;2023-07-20T21:56:51;1.38;;;0.77;;
76121;SDS011;70471;53.200;6.080;2023-07-20T22:01:44;1.40;;;0.88;;
76121;SDS011;70471;53.200;6.080;2023-07-20T22:06:37;1.73;;;0.73;;
76121;SDS011;70471;53.200;6.080;2023-07-20T22:11:38;1.48;;;0.90;;
76121;SDS011;70471;53.200;6.080;2023-07-20T22:16:29;1.38;;;0.70;;
76121;SDS011;70471;53.200;6.080;2023-07-20T22:21:23;2.47;;;0.85;;
76121;SDS011;70471;53.200;6.080;2023-07-20T22:26:14;1.25;;;0.52;;
76121;SDS011;70471;53.200;6.080;2023-07-20T22:31:07;1.05;;;0.60;;
76121;SDS011;70471;53.200;6.080;2023-07-20T22:35:58;2.63;;;1.10;;
76121;SDS011;70471;53.200;6.080;2023-07-20T22:40:51;1.27;;;0.75;;
76121;SDS011;70471;53.200;6.080;2023-07-20T22:45:42;1.08;;;0.82;;
76121;SDS011;70471;53.200;6.080;2023-07-20T22:50:34;1.52;;;0.80;;
76121;SDS011;70471;53.200;6.080;2023-07-20T22:55:25;1.13;;;0.73;;
76121;SDS011;70471;53.200;6.080;2023-07-20T23:00:19;2.05;;;0.63;;
76121;SDS011;70471;53.200;6.080;2023-07-20T23:05:16;1.38;;;0.70;;
76121;SDS011;70471;53.200;6.080;2023-07-20T23:10:08;0.80;;;0.60;;
76121;SDS011;70471;53.200;6.080;2023-07-20T23:15:00;3.15;;;1.10;;
76121;SDS011;70471;53.200;6.080;2023-07-20T23:19:53;1.13;;;0.60;;
76121;SDS011;70471;53.200;6.080;2023-07-20T23:24:44;1.35;;;0.80;;
76121;SDS011;70471;53.200;6.080;2023-07-20T23:29:36;1.80;;;1.08;;
76121;SDS011;70471;53.200;6.080;2023-07-20T23:34:27;1.92;;;0.98;;
76121;SDS011;70471;53.200;6.080;2023-07-20T23:39:20;1.55;;;0.73;;
76121;SDS011;70471;53.200;6.080;2023-07-20T23:44:13;2.00;;;1.00;;
76121;SDS011;70471;53.200;6.080;2023-07-20T23:49:04;1.27;;;0.93;;
76121;SDS011;70471;53.200;6.080;2023-07-20T23:53:57;1.08;;;0.63;;
76121;SDS011;70471;53.200;6.080;2023-07-20T23:58:50;2.13;;;0.93;;
